sensor_id;sensor_type;location;lat;lon;timestamp;P1;durP1;ratioP1;P2;durP2;ratioP2
6386;SDS011;3226;42.162;24.756;2022-11-11T00:01:16;6.07;;;5.87;;
6386;SDS011;3226;42.162;24.756;2022-11-11T00:03:44;5.97;;;5.77;;
6386;SDS011;3226;42.162;24.756;2022-11-11T00:06:13;5.93;;;5.73;;
6386;SDS011;3226;42.162;24.756;2022-11-11T00:08:45;5.33;;;5.13;;
6386;SDS011;3226;42.162;24.756;2022-11-11T00:11:14;7.10;;;6.80;;
6386;SDS011;3226;42.162;24.756;2022-11-11T00:13:43;6.20;;;5.97;;
6386;SDS011;3226;42.162;24.756;2022-11-11T00:16:11;6.87;;;6.57;;
6386;SDS011;3226;42.162;24.756;2022-11-11T00:18:43;6.40;;;6.10;;
6386;SDS011;3226;42.162;24.756;2022-11-11T00:21:29;5.50;;;5.30;;
6386;SDS011;3226;42.162;24.756;2022-11-11T00:24:19;5.13;;;4.93;;
6386;SDS011;3226;42.162;24.756;2022-11-11T00:27:06;5.97;;;5.67;;
6386;SDS011;3226;42.162;24.756;2022-11-11T00:29:35;6.50;;;6.20;;
6386;SDS011;3226;42.162;24.756;2022-11-11T00:32:05;6.57;;;6.27;;
6386;SDS011;3226;42.162;24.756;2022-11-11T00:34:51;6.53;;;6.23;;
6386;SDS011;3226;42.162;24.756;2022-11-11T00:37:38;5.83;;;5.63;;
6386;SDS011;3226;42.162;24.756;2022-11-11T00:40:06;7.30;;;6.70;;
6386;SDS011;3226;42.162;24.756;2022-11-11T00:42:36;6.50;;;6.20;;
6386;SDS011;3226;42.162;24.756;2022-11-11T00:45:04;7.53;;;7.23;;
6386;SDS011;3226;42.162;24.756;2022-11-11T00:47:33;6.60;;;6.30;;
6386;SDS011;3226;42.162;24.756;2022-11-11T00:50:20;6.80;;;6.50;;
6386;SDS011;3226;42.162;24.756;2022-11-11T00:53:08;6.83;;;6.53;;
6386;SDS011;3226;42.162;24.756;2022-11-11T00:55:37;6.77;;;6.47;;
6386;SDS011;3226;42.162;24.756;2022-11-11T00:58:06;7.60;;;7.30;;
6386;SDS011;3226;42.162;24.756;2022-11-11T01:00:34;7.63;;;7.33;;
6386;SDS011;3226;42.162;24.756;2022-11-11T01:03:02;6.63;;;6.33;;
6386;SDS011;3226;42.162;24.756;2022-11-11T01:05:31;6.43;;;6.13;;
6386;SDS011;3226;42.162;24.756;2022-11-11T01:07:59;6.93;;;6.63;;
6386;SDS011;3226;42.162;24.756;2022-11-11T01:10:27;6.43;;;6.13;;
6386;SDS011;3226;42.162;24.756;2022-11-11T01:13:15;7.47;;;6.90;;
6386;SDS011;3226;42.162;24.756;2022-11-11T01:15:46;7.03;;;6.73;;
6386;SDS011;3226;42.162;24.756;2022-11-11T01:18:16;7.00;;;6.70;;
6386;SDS011;3226;42.162;24.756;2022-11-11T01:20:52;7.03;;;6.73;;
6386;SDS011;3226;42.162;24.756;2022-11-11T01:23:25;7.90;;;7.50;;
6386;SDS011;3226;42.162;24.756;2022-11-11T01:25:53;6.77;;;6.47;;
6386;SDS011;3226;42.162;24.756;2022-11-11T01:28:21;6.67;;;6.37;;
6386;SDS011;3226;42.162;24.756;2022-11-11T01:30:50;6.73;;;6.43;;
6386;SDS011;3226;42.162;24.756;2022-11-11T01:33:18;7.33;;;6.73;;
6386;SDS011;3226;42.162;24.756;2022-11-11T01:35:47;6.77;;;6.47;;
6386;SDS011;3226;42.162;24.756;2022-11-11T01:38:15;6.00;;;5.80;;
6386;SDS011;3226;42.162;24.756;2022-11-11T01:40:44;7.03;;;6.73;;
6386;SDS011;3226;42.162;24.756;2022-11-11T01:43:14;6.83;;;6.53;;
6386;SDS011;3226;42.162;24.756;2022-11-11T01:45:47;7.03;;;6.73;;
6386;SDS011;3226;42.162;24.756;2022-11-11T01:48:22;6.73;;;6.43;;
6386;SDS011;3226;42.162;24.756;2022-11-11T01:51:15;6.70;;;6.40;;
6386;SDS011;3226;42.162;24.756;2022-11-11T01:53:48;6.27;;;6.03;;
6386;SDS011;3226;42.162;24.756;2022-11-11T01:56:21;7.43;;;7.13;;
6386;SDS011;3226;42.162;24.756;2022-11-11T01:58:50;6.93;;;6.63;;
6386;SDS011;3226;42.162;24.756;2022-11-11T02:01:21;6.77;;;6.47;;
6386;SDS011;3226;42.162;24.756;2022-11-11T02:03:49;6.53;;;6.23;;
6386;SDS011;3226;42.162;24.756;2022-11-11T02:06:35;6.37;;;6.10;;
6386;SDS011;3226;42.162;24.756;2022-11-11T02:09:05;6.43;;;6.13;;
6386;SDS011;3226;42.162;24.756;2022-11-11T02:11:34;7.10;;;6.80;;
6386;SDS011;3226;42.162;24.756;2022-11-11T02:14:21;6.67;;;6.37;;
6386;SDS011;3226;42.162;24.756;2022-11-11T02:17:07;6.50;;;6.20;;
6386;SDS011;3226;42.162;24.756;2022-11-11T02:19:43;6.00;;;5.80;;
6386;SDS011;3226;42.162;24.756;2022-11-11T02:22:21;6.77;;;6.47;;
6386;SDS011;3226;42.162;24.756;2022-11-11T02:24:54;6.10;;;5.90;;
6386;SDS011;3226;42.162;24.756;2022-11-11T02:27:24;6.90;;;6.60;;
6386;SDS011;3226;42.162;24.756;2022-11-11T02:29:54;7.20;;;6.90;;
6386;SDS011;3226;42.162;24.756;2022-11-11T02:32:24;7.70;;;7.40;;
6386;SDS011;3226;42.162;24.756;2022-11-11T02:34:52;7.60;;;7.30;;
6386;SDS011;3226;42.162;24.756;2022-11-11T02:37:21;8.10;;;7.80;;
6386;SDS011;3226;42.162;24.756;2022-11-11T02:39:51;7.50;;;7.20;;
6386;SDS011;3226;42.162;24.756;2022-11-11T02:42:31;6.60;;;6.30;;
6386;SDS011;3226;42.162;24.756;2022-11-11T02:45:01;7.10;;;6.80;;
6386;SDS011;3226;42.162;24.756;2022-11-11T02:47:29;7.17;;;6.87;;
6386;SDS011;3226;42.162;24.756;2022-11-11T02:49:57;6.93;;;6.63;;
6386;SDS011;3226;42.162;24.756;2022-11-11T02:52:25;6.57;;;6.27;;
6386;SDS011;3226;42.162;24.756;2022-11-11T02:54:55;6.47;;;6.17;;
6386;SDS011;3226;42.162;24.756;2022-11-11T02:57:23;7.20;;;6.90;;
6386;SDS011;3226;42.162;24.756;2022-11-11T02:59:51;6.83;;;6.53;;
6386;SDS011;3226;42.162;24.756;2022-11-11T03:02:19;6.53;;;6.23;;
6386;SDS011;3226;42.162;24.756;2022-11-11T03:04:47;6.60;;;6.30;;
6386;SDS011;3226;42.162;24.756;2022-11-11T03:07:15;6.33;;;6.07;;
6386;SDS011;3226;42.162;24.756;2022-11-11T03:09:43;6.83;;;6.53;;
6386;SDS011;3226;42.162;24.756;2022-11-11T03:12:13;6.67;;;6.37;;
6386;SDS011;3226;42.162;24.756;2022-11-11T03:14:41;6.33;;;6.07;;
6386;SDS011;3226;42.162;24.756;2022-11-11T03:17:10;6.67;;;6.37;;
6386;SDS011;3226;42.162;24.756;2022-11-11T03:19:55;6.73;;;6.43;;
6386;SDS011;3226;42.162;24.756;2022-11-11T03:22:43;7.13;;;6.83;;
6386;SDS011;3226;42.162;24.756;2022-11-11T03:25:20;6.17;;;5.97;;
6386;SDS011;3226;42.162;24.756;2022-11-11T03:28:08;6.37;;;6.10;;
6386;SDS011;3226;42.162;24.756;2022-11-11T03:30:38;7.07;;;6.77;;
6386;SDS011;3226;42.162;24.756;2022-11-11T03:33:07;6.97;;;6.67;;
6386;SDS011;3226;42.162;24.756;2022-11-11T03:35:36;7.03;;;6.73;;
6386;SDS011;3226;42.162;24.756;2022-11-11T03:38:04;7.43;;;7.13;;
6386;SDS011;3226;42.162;24.756;2022-11-11T03:40:44;7.23;;;6.93;;
6386;SDS011;3226;42.162;24.756;2022-11-11T03:43:14;6.70;;;6.40;;
6386;SDS011;3226;42.162;24.756;2022-11-11T03:45:43;6.83;;;6.53;;
6386;SDS011;3226;42.162;24.756;2022-11-11T03:48:12;6.40;;;6.10;;
6386;SDS011;3226;42.162;24.756;2022-11-11T03:50:40;7.07;;;6.77;;
6386;SDS011;3226;42.162;24.756;2022-11-11T03:53:09;7.70;;;7.30;;
6386;SDS011;3226;42.162;24.756;2022-11-11T03:55:37;6.13;;;5.93;;
6386;SDS011;3226;42.162;24.756;2022-11-11T03:58:05;7.07;;;6.77;;
6386;SDS011;3226;42.162;24.756;2022-11-11T04:00:34;7.57;;;7.20;;
6386;SDS011;3226;42.162;24.756;2022-11-11T04:03:03;6.67;;;6.37;;
6386;SDS011;3226;42.162;24.756;2022-11-11T04:05:51;6.97;;;6.67;;
6386;SDS011;3226;42.162;24.756;2022-11-11T04:08:37;7.17;;;6.87;;
6386;SDS011;3226;42.162;24.756;2022-11-11T04:11:23;6.53;;;6.23;;
6386;SDS011;3226;42.162;24.756;2022-11-11T04:13:53;7.13;;;6.83;;
6386;SDS011;3226;42.162;24.756;2022-11-11T04:16:44;7.30;;;7.00;;
6386;SDS011;3226;42.162;24.756;2022-11-11T04:19:11;6.17;;;5.93;;
6386;SDS011;3226;42.162;24.756;2022-11-11T04:21:57;5.90;;;5.70;;
6386;SDS011;3226;42.162;24.756;2022-11-11T04:24:25;6.63;;;6.33;;
6386;SDS011;3226;42.162;24.756;2022-11-11T04:27:11;6.57;;;6.27;;
6386;SDS011;3226;42.162;24.756;2022-11-11T04:29:41;7.47;;;7.17;;
6386;SDS011;3226;42.162;24.756;2022-11-11T04:32:11;6.60;;;6.30;;
6386;SDS011;3226;42.162;24.756;2022-11-11T04:34:58;7.03;;;6.73;;
6386;SDS011;3226;42.162;24.756;2022-11-11T04:37:29;6.83;;;6.53;;
6386;SDS011;3226;42.162;24.756;2022-11-11T04:39:59;7.17;;;6.87;;
6386;SDS011;3226;42.162;24.756;2022-11-11T04:42:45;7.63;;;7.33;;
6386;SDS011;3226;42.162;24.756;2022-11-11T04:45:13;8.23;;;7.73;;
6386;SDS011;3226;42.162;24.756;2022-11-11T04:47:59;6.07;;;5.87;;
6386;SDS011;3226;42.162;24.756;2022-11-11T04:50:29;31.20;;;8.13;;
6386;SDS011;3226;42.162;24.756;2022-11-11T04:53:00;7.83;;;7.30;;
6386;SDS011;3226;42.162;24.756;2022-11-11T04:55:28;6.57;;;6.27;;
6386;SDS011;3226;42.162;24.756;2022-11-11T04:58:14;7.90;;;7.60;;
6386;SDS011;3226;42.162;24.756;2022-11-11T05:00:42;6.53;;;6.23;;
6386;SDS011;3226;42.162;24.756;2022-11-11T05:03:13;6.33;;;6.07;;
6386;SDS011;3226;42.162;24.756;2022-11-11T05:05:44;7.03;;;6.73;;
6386;SDS011;3226;42.162;24.756;2022-11-11T05:08:31;7.87;;;7.57;;
6386;SDS011;3226;42.162;24.756;2022-11-11T05:11:17;7.03;;;6.73;;
6386;SDS011;3226;42.162;24.756;2022-11-11T05:13:45;7.15;;;6.85;;
6386;SDS011;3226;42.162;24.756;2022-11-11T05:16:32;6.97;;;6.67;;
6386;SDS011;3226;42.162;24.756;2022-11-11T05:19:22;7.30;;;7.00;;
6386;SDS011;3226;42.162;24.756;2022-11-11T05:22:09;6.63;;;6.33;;
6386;SDS011;3226;42.162;24.756;2022-11-11T05:24:39;6.77;;;6.47;;
6386;SDS011;3226;42.162;24.756;2022-11-11T05:27:26;6.97;;;6.67;;
6386;SDS011;3226;42.162;24.756;2022-11-11T05:29:54;6.93;;;6.63;;
6386;SDS011;3226;42.162;24.756;2022-11-11T05:32:23;7.40;;;7.10;;
6386;SDS011;3226;42.162;24.756;2022-11-11T05:34:52;6.40;;;6.10;;
6386;SDS011;3226;42.162;24.756;2022-11-11T05:37:20;6.87;;;6.57;;
6386;SDS011;3226;42.162;24.756;2022-11-11T05:39:48;7.10;;;6.80;;
6386;SDS011;3226;42.162;24.756;2022-11-11T05:42:16;8.07;;;7.50;;
6386;SDS011;3226;42.162;24.756;2022-11-11T05:44:44;6.60;;;6.30;;
6386;SDS011;3226;42.162;24.756;2022-11-11T05:47:12;7.20;;;6.90;;
6386;SDS011;3226;42.162;24.756;2022-11-11T05:49:41;7.23;;;6.93;;
6386;SDS011;3226;42.162;24.756;2022-11-11T05:52:11;7.60;;;7.30;;
6386;SDS011;3226;42.162;24.756;2022-11-11T05:54:41;7.30;;;7.00;;
6386;SDS011;3226;42.162;24.756;2022-11-11T05:57:09;6.90;;;6.60;;
6386;SDS011;3226;42.162;24.756;2022-11-11T05:59:38;6.87;;;6.57;;
6386;SDS011;3226;42.162;24.756;2022-11-11T06:02:06;7.27;;;6.97;;
6386;SDS011;3226;42.162;24.756;2022-11-11T06:04:34;7.57;;;7.27;;
6386;SDS011;3226;42.162;24.756;2022-11-11T06:07:02;7.23;;;6.63;;
6386;SDS011;3226;42.162;24.756;2022-11-11T06:09:31;5.97;;;5.77;;
6386;SDS011;3226;42.162;24.756;2022-11-11T06:11:59;6.80;;;6.50;;
6386;SDS011;3226;42.162;24.756;2022-11-11T06:14:27;7.20;;;6.90;;
6386;SDS011;3226;42.162;24.756;2022-11-11T06:16:55;7.07;;;6.77;;
6386;SDS011;3226;42.162;24.756;2022-11-11T06:19:23;7.53;;;7.23;;
6386;SDS011;3226;42.162;24.756;2022-11-11T06:21:50;6.80;;;6.50;;
6386;SDS011;3226;42.162;24.756;2022-11-11T06:24:26;6.40;;;6.10;;
6386;SDS011;3226;42.162;24.756;2022-11-11T06:26:55;6.63;;;6.33;;
6386;SDS011;3226;42.162;24.756;2022-11-11T06:29:22;6.23;;;5.93;;
6386;SDS011;3226;42.162;24.756;2022-11-11T06:31:50;5.97;;;5.77;;
6386;SDS011;3226;42.162;24.756;2022-11-11T06:34:18;6.77;;;6.47;;
6386;SDS011;3226;42.162;24.756;2022-11-11T06:36:46;6.57;;;6.27;;
6386;SDS011;3226;42.162;24.756;2022-11-11T06:39:14;7.10;;;6.80;;
6386;SDS011;3226;42.162;24.756;2022-11-11T06:41:42;6.43;;;6.13;;
6386;SDS011;3226;42.162;24.756;2022-11-11T06:44:11;6.53;;;6.23;;
6386;SDS011;3226;42.162;24.756;2022-11-11T06:46:39;6.97;;;6.67;;
6386;SDS011;3226;42.162;24.756;2022-11-11T06:49:07;6.30;;;6.03;;
6386;SDS011;3226;42.162;24.756;2022-11-11T06:51:35;6.23;;;5.93;;
6386;SDS011;3226;42.162;24.756;2022-11-11T06:54:03;6.57;;;6.27;;
6386;SDS011;3226;42.162;24.756;2022-11-11T06:56:31;6.83;;;6.53;;
6386;SDS011;3226;42.162;24.756;2022-11-11T06:58:59;6.23;;;6.00;;
6386;SDS011;3226;42.162;24.756;2022-11-11T07:01:28;5.93;;;5.73;;
6386;SDS011;3226;42.162;24.756;2022-11-11T07:03:56;6.17;;;5.97;;
6386;SDS011;3226;42.162;24.756;2022-11-11T07:06:24;7.10;;;6.80;;
6386;SDS011;3226;42.162;24.756;2022-11-11T07:08:52;7.00;;;6.70;;
6386;SDS011;3226;42.162;24.756;2022-11-11T07:11:20;5.87;;;5.67;;
6386;SDS011;3226;42.162;24.756;2022-11-11T07:13:48;6.20;;;5.97;;
6386;SDS011;3226;42.162;24.756;2022-11-11T07:16:16;6.57;;;6.27;;
6386;SDS011;3226;42.162;24.756;2022-11-11T07:18:45;5.60;;;5.40;;
6386;SDS011;3226;42.162;24.756;2022-11-11T07:21:13;5.73;;;5.43;;
6386;SDS011;3226;42.162;24.756;2022-11-11T07:23:41;7.17;;;6.87;;
6386;SDS011;3226;42.162;24.756;2022-11-11T07:26:09;7.53;;;7.23;;
6386;SDS011;3226;42.162;24.756;2022-11-11T07:28:37;5.50;;;5.30;;
6386;SDS011;3226;42.162;24.756;2022-11-11T07:31:05;6.53;;;5.93;;
6386;SDS011;3226;42.162;24.756;2022-11-11T07:33:33;5.73;;;5.53;;
6386;SDS011;3226;42.162;24.756;2022-11-11T07:36:02;6.23;;;6.00;;
6386;SDS011;3226;42.162;24.756;2022-11-11T07:38:30;6.37;;;6.07;;
6386;SDS011;3226;42.162;24.756;2022-11-11T07:40:58;6.30;;;6.00;;
6386;SDS011;3226;42.162;24.756;2022-11-11T07:43:26;7.83;;;7.53;;
6386;SDS011;3226;42.162;24.756;2022-11-11T07:45:54;6.90;;;6.60;;
6386;SDS011;3226;42.162;24.756;2022-11-11T07:48:22;6.70;;;6.40;;
6386;SDS011;3226;42.162;24.756;2022-11-11T07:50:50;7.03;;;6.73;;
6386;SDS011;3226;42.162;24.756;2022-11-11T07:53:21;7.30;;;7.00;;
6386;SDS011;3226;42.162;24.756;2022-11-11T07:55:49;7.77;;;7.47;;
6386;SDS011;3226;42.162;24.756;2022-11-11T07:58:17;6.23;;;6.00;;
6386;SDS011;3226;42.162;24.756;2022-11-11T08:00:45;6.47;;;6.17;;
6386;SDS011;3226;42.162;24.756;2022-11-11T08:03:13;7.17;;;6.87;;
6386;SDS011;3226;42.162;24.756;2022-11-11T08:05:41;7.87;;;7.37;;
6386;SDS011;3226;42.162;24.756;2022-11-11T08:08:09;8.47;;;7.80;;
6386;SDS011;3226;42.162;24.756;2022-11-11T08:10:39;7.93;;;7.63;;
6386;SDS011;3226;42.162;24.756;2022-11-11T08:13:07;8.60;;;8.20;;
6386;SDS011;3226;42.162;24.756;2022-11-11T08:16:02;7.07;;;6.77;;
6386;SDS011;3226;42.162;24.756;2022-11-11T08:18:32;7.13;;;6.83;;
6386;SDS011;3226;42.162;24.756;2022-11-11T08:21:00;7.60;;;7.30;;
6386;SDS011;3226;42.162;24.756;2022-11-11T08:23:31;6.97;;;6.67;;
6386;SDS011;3226;42.162;24.756;2022-11-11T08:26:21;8.97;;;8.57;;
6386;SDS011;3226;42.162;24.756;2022-11-11T08:28:55;7.73;;;7.43;;
6386;SDS011;3226;42.162;24.756;2022-11-11T08:31:23;9.27;;;8.40;;
6386;SDS011;3226;42.162;24.756;2022-11-11T08:33:51;7.73;;;7.43;;
6386;SDS011;3226;42.162;24.756;2022-11-11T08:36:19;7.90;;;7.60;;
6386;SDS011;3226;42.162;24.756;2022-11-11T08:38:49;8.80;;;8.40;;
6386;SDS011;3226;42.162;24.756;2022-11-11T08:41:17;8.37;;;7.90;;
6386;SDS011;3226;42.162;24.756;2022-11-11T08:43:48;7.13;;;6.83;;
6386;SDS011;3226;42.162;24.756;2022-11-11T08:46:18;7.13;;;6.83;;
6386;SDS011;3226;42.162;24.756;2022-11-11T08:48:46;7.97;;;7.67;;
6386;SDS011;3226;42.162;24.756;2022-11-11T08:51:14;8.50;;;8.10;;
6386;SDS011;3226;42.162;24.756;2022-11-11T08:53:43;7.93;;;7.63;;
6386;SDS011;3226;42.162;24.756;2022-11-11T08:56:11;6.67;;;6.37;;
6386;SDS011;3226;42.162;24.756;2022-11-11T08:58:39;7.93;;;7.63;;
6386;SDS011;3226;42.162;24.756;2022-11-11T09:01:10;7.63;;;7.33;;
6386;SDS011;3226;42.162;24.756;2022-11-11T09:03:39;7.77;;;7.47;;
6386;SDS011;3226;42.162;24.756;2022-11-11T09:06:09;7.37;;;7.07;;
6386;SDS011;3226;42.162;24.756;2022-11-11T09:08:40;8.07;;;7.77;;
6386;SDS011;3226;42.162;24.756;2022-11-11T09:11:08;8.60;;;8.20;;
6386;SDS011;3226;42.162;24.756;2022-11-11T09:13:36;8.87;;;8.47;;
6386;SDS011;3226;42.162;24.756;2022-11-11T09:16:06;8.03;;;7.73;;
6386;SDS011;3226;42.162;24.756;2022-11-11T09:18:36;7.70;;;7.40;;
6386;SDS011;3226;42.162;24.756;2022-11-11T09:21:04;7.93;;;7.50;;
6386;SDS011;3226;42.162;24.756;2022-11-11T09:23:32;8.03;;;7.73;;
6386;SDS011;3226;42.162;24.756;2022-11-11T09:26:00;7.97;;;7.47;;
6386;SDS011;3226;42.162;24.756;2022-11-11T09:28:30;7.93;;;7.63;;
6386;SDS011;3226;42.162;24.756;2022-11-11T09:31:00;8.57;;;8.17;;
6386;SDS011;3226;42.162;24.756;2022-11-11T09:33:50;7.37;;;7.07;;
6386;SDS011;3226;42.162;24.756;2022-11-11T09:36:19;8.70;;;8.30;;
6386;SDS011;3226;42.162;24.756;2022-11-11T09:38:48;7.50;;;7.20;;
6386;SDS011;3226;42.162;24.756;2022-11-11T09:41:17;8.93;;;8.53;;
6386;SDS011;3226;42.162;24.756;2022-11-11T09:43:52;8.93;;;8.53;;
6386;SDS011;3226;42.162;24.756;2022-11-11T09:46:25;8.17;;;7.87;;
6386;SDS011;3226;42.162;24.756;2022-11-11T09:51:56;8.67;;;8.27;;
6386;SDS011;3226;42.162;24.756;2022-11-11T09:54:33;9.23;;;8.83;;
6386;SDS011;3226;42.162;24.756;2022-11-11T09:57:04;9.20;;;8.80;;
6386;SDS011;3226;42.162;24.756;2022-11-11T09:59:40;8.73;;;8.33;;
6386;SDS011;3226;42.162;24.756;2022-11-11T10:02:17;8.33;;;7.93;;
6386;SDS011;3226;42.162;24.756;2022-11-11T10:04:56;7.87;;;7.57;;
6386;SDS011;3226;42.162;24.756;2022-11-11T10:07:32;7.80;;;7.50;;
6386;SDS011;3226;42.162;24.756;2022-11-11T10:10:07;7.67;;;7.37;;
6386;SDS011;3226;42.162;24.756;2022-11-11T10:12:41;7.57;;;7.27;;
6386;SDS011;3226;42.162;24.756;2022-11-11T10:15:13;8.73;;;8.33;;
6386;SDS011;3226;42.162;24.756;2022-11-11T10:17:44;8.33;;;7.93;;
6386;SDS011;3226;42.162;24.756;2022-11-11T10:20:25;8.37;;;7.97;;
6386;SDS011;3226;42.162;24.756;2022-11-11T10:22:59;7.60;;;7.30;;
6386;SDS011;3226;42.162;24.756;2022-11-11T10:25:30;8.13;;;7.83;;
6386;SDS011;3226;42.162;24.756;2022-11-11T10:27:59;7.63;;;7.33;;
6386;SDS011;3226;42.162;24.756;2022-11-11T10:30:29;8.97;;;8.17;;
6386;SDS011;3226;42.162;24.756;2022-11-11T10:33:00;8.60;;;8.20;;
6386;SDS011;3226;42.162;24.756;2022-11-11T10:35:32;7.60;;;7.27;;
6386;SDS011;3226;42.162;24.756;2022-11-11T10:38:02;7.73;;;7.33;;
6386;SDS011;3226;42.162;24.756;2022-11-11T10:40:42;7.47;;;7.17;;
6386;SDS011;3226;42.162;24.756;2022-11-11T10:43:18;7.87;;;7.57;;
6386;SDS011;3226;42.162;24.756;2022-11-11T10:45:50;8.03;;;7.73;;
6386;SDS011;3226;42.162;24.756;2022-11-11T10:48:30;8.67;;;8.27;;
6386;SDS011;3226;42.162;24.756;2022-11-11T10:51:10;8.07;;;7.73;;
6386;SDS011;3226;42.162;24.756;2022-11-11T10:53:42;8.07;;;7.77;;
6386;SDS011;3226;42.162;24.756;2022-11-11T10:56:17;7.97;;;7.67;;
6386;SDS011;3226;42.162;24.756;2022-11-11T10:58:51;7.97;;;7.67;;
6386;SDS011;3226;42.162;24.756;2022-11-11T11:01:25;8.80;;;8.40;;
6386;SDS011;3226;42.162;24.756;2022-11-11T11:03:59;6.70;;;6.40;;
6386;SDS011;3226;42.162;24.756;2022-11-11T11:06:33;8.43;;;8.03;;
6386;SDS011;3226;42.162;24.756;2022-11-11T11:09:07;7.30;;;7.00;;
6386;SDS011;3226;42.162;24.756;2022-11-11T11:11:41;7.27;;;6.97;;
6386;SDS011;3226;42.162;24.756;2022-11-11T11:14:18;8.80;;;8.40;;
6386;SDS011;3226;42.162;24.756;2022-11-11T11:16:50;8.73;;;8.33;;
6386;SDS011;3226;42.162;24.756;2022-11-11T11:19:22;8.17;;;7.87;;
6386;SDS011;3226;42.162;24.756;2022-11-11T11:21:54;9.20;;;8.80;;
6386;SDS011;3226;42.162;24.756;2022-11-11T11:24:23;9.03;;;8.63;;
6386;SDS011;3226;42.162;24.756;2022-11-11T11:26:53;8.67;;;8.27;;
6386;SDS011;3226;42.162;24.756;2022-11-11T11:29:23;8.33;;;7.97;;
6386;SDS011;3226;42.162;24.756;2022-11-11T11:31:53;9.00;;;8.60;;
6386;SDS011;3226;42.162;24.756;2022-11-11T11:34:22;8.70;;;8.30;;
6386;SDS011;3226;42.162;24.756;2022-11-11T11:37:11;7.60;;;7.30;;
6386;SDS011;3226;42.162;24.756;2022-11-11T11:39:39;10.27;;;9.80;;
6386;SDS011;3226;42.162;24.756;2022-11-11T11:42:07;8.07;;;7.77;;
6386;SDS011;3226;42.162;24.756;2022-11-11T11:44:37;7.83;;;7.53;;
6386;SDS011;3226;42.162;24.756;2022-11-11T11:47:10;8.13;;;7.83;;
6386;SDS011;3226;42.162;24.756;2022-11-11T11:50:02;8.57;;;8.17;;
6386;SDS011;3226;42.162;24.756;2022-11-11T11:52:45;7.73;;;7.43;;
6386;SDS011;3226;42.162;24.756;2022-11-11T11:55:24;7.67;;;7.37;;
6386;SDS011;3226;42.162;24.756;2022-11-11T11:58:00;8.40;;;8.00;;
6386;SDS011;3226;42.162;24.756;2022-11-11T12:00:41;7.57;;;7.27;;
6386;SDS011;3226;42.162;24.756;2022-11-11T12:03:24;7.53;;;7.23;;
6386;SDS011;3226;42.162;24.756;2022-11-11T12:06:06;8.63;;;8.23;;
6386;SDS011;3226;42.162;24.756;2022-11-11T12:08:49;8.43;;;8.03;;
6386;SDS011;3226;42.162;24.756;2022-11-11T12:11:29;8.53;;;8.13;;
6386;SDS011;3226;42.162;24.756;2022-11-11T12:14:14;7.97;;;7.67;;
6386;SDS011;3226;42.162;24.756;2022-11-11T12:16:56;8.13;;;7.83;;
6386;SDS011;3226;42.162;24.756;2022-11-11T12:19:40;8.63;;;8.23;;
6386;SDS011;3226;42.162;24.756;2022-11-11T12:22:20;7.37;;;7.07;;
6386;SDS011;3226;42.162;24.756;2022-11-11T12:25:14;8.10;;;7.77;;
6386;SDS011;3226;42.162;24.756;2022-11-11T12:27:49;8.37;;;7.97;;
6386;SDS011;3226;42.162;24.756;2022-11-11T12:30:24;7.40;;;7.10;;
6386;SDS011;3226;42.162;24.756;2022-11-11T12:33:04;8.47;;;8.07;;
6386;SDS011;3226;42.162;24.756;2022-11-11T12:35:48;7.93;;;7.63;;
6386;SDS011;3226;42.162;24.756;2022-11-11T12:38:27;8.83;;;8.43;;
6386;SDS011;3226;42.162;24.756;2022-11-11T12:41:13;10.33;;;9.83;;
6386;SDS011;3226;42.162;24.756;2022-11-11T12:43:53;9.70;;;9.30;;
6386;SDS011;3226;42.162;24.756;2022-11-11T12:46:30;8.53;;;8.13;;
6386;SDS011;3226;42.162;24.756;2022-11-11T12:49:11;9.43;;;8.93;;
6386;SDS011;3226;42.162;24.756;2022-11-11T12:51:54;8.77;;;8.37;;
6386;SDS011;3226;42.162;24.756;2022-11-11T12:54:29;11.07;;;10.57;;
6386;SDS011;3226;42.162;24.756;2022-11-11T12:57:09;9.90;;;9.37;;
6386;SDS011;3226;42.162;24.756;2022-11-11T12:59:49;9.80;;;9.40;;
6386;SDS011;3226;42.162;24.756;2022-11-11T13:02:36;8.33;;;7.93;;
6386;SDS011;3226;42.162;24.756;2022-11-11T13:05:12;8.57;;;8.17;;
6386;SDS011;3226;42.162;24.756;2022-11-11T13:07:57;8.87;;;8.47;;
6386;SDS011;3226;42.162;24.756;2022-11-11T13:10:41;8.43;;;8.03;;
6386;SDS011;3226;42.162;24.756;2022-11-11T13:13:23;8.57;;;8.17;;
6386;SDS011;3226;42.162;24.756;2022-11-11T13:16:01;8.53;;;8.13;;
6386;SDS011;3226;42.162;24.756;2022-11-11T13:18:34;7.70;;;7.40;;
6386;SDS011;3226;42.162;24.756;2022-11-11T13:21:09;7.50;;;7.20;;
6386;SDS011;3226;42.162;24.756;2022-11-11T13:23:40;7.70;;;7.40;;
6386;SDS011;3226;42.162;24.756;2022-11-11T13:26:12;8.80;;;8.40;;
6386;SDS011;3226;42.162;24.756;2022-11-11T13:28:53;9.63;;;9.13;;
6386;SDS011;3226;42.162;24.756;2022-11-11T13:31:30;8.53;;;8.17;;
6386;SDS011;3226;42.162;24.756;2022-11-11T13:34:03;8.07;;;7.77;;
6386;SDS011;3226;42.162;24.756;2022-11-11T13:36:38;7.93;;;7.63;;
6386;SDS011;3226;42.162;24.756;2022-11-11T13:39:18;6.83;;;6.53;;
6386;SDS011;3226;42.162;24.756;2022-11-11T13:41:52;8.03;;;7.73;;
6386;SDS011;3226;42.162;24.756;2022-11-11T13:44:24;7.00;;;6.70;;
6386;SDS011;3226;42.162;24.756;2022-11-11T13:46:59;8.57;;;8.17;;
6386;SDS011;3226;42.162;24.756;2022-11-11T13:49:31;7.25;;;6.95;;
6386;SDS011;3226;42.162;24.756;2022-11-11T13:52:02;8.03;;;7.73;;
6386;SDS011;3226;42.162;24.756;2022-11-11T13:54:33;8.60;;;8.20;;
6386;SDS011;3226;42.162;24.756;2022-11-11T13:57:05;8.47;;;8.07;;
6386;SDS011;3226;42.162;24.756;2022-11-11T13:59:37;8.03;;;7.73;;
6386;SDS011;3226;42.162;24.756;2022-11-11T14:02:12;8.13;;;7.83;;
6386;SDS011;3226;42.162;24.756;2022-11-11T14:07:48;8.37;;;7.97;;
6386;SDS011;3226;42.162;24.756;2022-11-11T14:13:35;8.57;;;8.17;;
6386;SDS011;3226;42.162;24.756;2022-11-11T14:16:11;8.60;;;8.20;;
6386;SDS011;3226;42.162;24.756;2022-11-11T14:19:27;9.70;;;9.30;;
6386;SDS011;3226;42.162;24.756;2022-11-11T14:21:58;9.87;;;9.47;;
6386;SDS011;3226;42.162;24.756;2022-11-11T14:24:33;10.93;;;10.43;;
6386;SDS011;3226;42.162;24.756;2022-11-11T14:27:03;10.60;;;10.10;;
6386;SDS011;3226;42.162;24.756;2022-11-11T14:29:48;9.90;;;9.50;;
6386;SDS011;3226;42.162;24.756;2022-11-11T14:32:28;9.70;;;9.30;;
6386;SDS011;3226;42.162;24.756;2022-11-11T14:35:10;8.20;;;7.90;;
6386;SDS011;3226;42.162;24.756;2022-11-11T14:37:56;8.57;;;8.17;;
6386;SDS011;3226;42.162;24.756;2022-11-11T14:40:32;8.83;;;8.43;;
6386;SDS011;3226;42.162;24.756;2022-11-11T14:46:04;9.50;;;9.10;;
6386;SDS011;3226;42.162;24.756;2022-11-11T14:51:36;9.27;;;8.87;;
6386;SDS011;3226;42.162;24.756;2022-11-11T14:54:14;8.33;;;7.93;;
6386;SDS011;3226;42.162;24.756;2022-11-11T14:56:52;7.60;;;7.30;;
6386;SDS011;3226;42.162;24.756;2022-11-11T14:59:28;8.30;;;7.90;;
6386;SDS011;3226;42.162;24.756;2022-11-11T15:01:59;8.57;;;8.17;;
6386;SDS011;3226;42.162;24.756;2022-11-11T15:04:36;8.43;;;7.87;;
6386;SDS011;3226;42.162;24.756;2022-11-11T15:07:05;8.10;;;7.80;;
6386;SDS011;3226;42.162;24.756;2022-11-11T15:09:55;8.40;;;8.00;;
6386;SDS011;3226;42.162;24.756;2022-11-11T15:12:44;8.63;;;8.23;;
6386;SDS011;3226;42.162;24.756;2022-11-11T15:15:23;7.97;;;7.67;;
6386;SDS011;3226;42.162;24.756;2022-11-11T15:18:00;8.80;;;8.20;;
6386;SDS011;3226;42.162;24.756;2022-11-11T15:20:48;10.47;;;9.97;;
6386;SDS011;3226;42.162;24.756;2022-11-11T15:23:29;8.13;;;7.80;;
6386;SDS011;3226;42.162;24.756;2022-11-11T15:26:04;8.30;;;7.90;;
6386;SDS011;3226;42.162;24.756;2022-11-11T15:28:52;7.37;;;7.07;;
6386;SDS011;3226;42.162;24.756;2022-11-11T15:31:31;7.73;;;7.43;;
6386;SDS011;3226;42.162;24.756;2022-11-11T15:34:10;8.53;;;8.13;;
6386;SDS011;3226;42.162;24.756;2022-11-11T15:36:53;8.00;;;7.70;;
6386;SDS011;3226;42.162;24.756;2022-11-11T15:39:23;7.17;;;6.87;;
6386;SDS011;3226;42.162;24.756;2022-11-11T15:41:53;7.73;;;7.43;;
6386;SDS011;3226;42.162;24.756;2022-11-11T15:44:22;9.27;;;8.87;;
6386;SDS011;3226;42.162;24.756;2022-11-11T15:46:53;8.00;;;7.70;;
6386;SDS011;3226;42.162;24.756;2022-11-11T15:49:38;6.90;;;6.60;;
6386;SDS011;3226;42.162;24.756;2022-11-11T15:52:23;8.13;;;7.80;;
6386;SDS011;3226;42.162;24.756;2022-11-11T15:54:53;8.63;;;8.17;;